Time;durP1;ratioP1;P1;durP2;ratioP2;P2;SDS_P1;SDS_P2;PMS_P1;PMS_P2;Temp;Humidity;BMP_temperature;BMP_pressure;BME280_temperature;BME280_humidity;BME280_pressure;Samples;Min_cycle;Max_cycle;Signal;HPM_P1;HPM_P2
2021/12/08 00:00:08;;;;;;;10.57;3.58;;;2.40;99.90;;;;;;5069454;28;20048;-80
2021/12/08 00:02:34;;;;;;;12.90;3.38;;;2.40;99.90;;;;;;5085764;28;20649;-83
2021/12/08 00:05:00;;;;;;;13.95;4.28;;;2.40;99.90;;;;;;5065930;28;20102;-82
2021/12/08 00:07:26;;;;;;;12.13;4.95;;;2.40;99.90;;;;;;5084493;28;20074;-83
2021/12/08 00:13:05;;;;;;;15.93;4.85;;;2.50;99.90;;;;;;5057749;28;20077;-83
2021/12/08 00:15:36;;;;;;;15.23;4.10;;;3.20;99.90;;;;;;5085922;28;20504;-83
2021/12/08 00:18:04;;;;;;;10.40;3.88;;;2.50;99.90;;;;;;5084502;28;20052;-83
2021/12/08 00:20:32;;;;;;;14.40;4.10;;;2.60;99.90;;;;;;5085388;28;20080;-81
2021/12/08 00:22:59;;;;;;;16.08;4.35;;;2.60;99.90;;;;;;5067842;28;20103;-82
2021/12/08 00:25:25;;;;;;;12.23;4.90;;;2.60;99.90;;;;;;5068462;28;20486;-81
2021/12/08 00:27:54;;;;;;;12.38;3.80;;;2.60;99.90;;;;;;5068284;28;20358;-82
2021/12/08 00:30:20;;;;;;;13.93;4.22;;;2.60;99.90;;;;;;5085482;28;20059;-82
2021/12/08 00:32:46;;;;;;;11.27;5.05;;;2.60;99.90;;;;;;5084764;28;20491;-82
2021/12/08 00:35:13;;;;;;;12.68;4.03;;;2.70;99.90;;;;;;5085597;28;20218;-82
2021/12/08 00:37:40;;;;;;;13.15;4.90;;;2.70;99.90;;;;;;5068274;28;20442;-84
2021/12/08 00:40:09;;;;;;;11.32;4.70;;;2.70;99.90;;;;;;5068299;28;20059;-82
2021/12/08 00:42:36;;;;;;;11.80;3.78;;;2.80;99.90;;;;;;5084847;28;20055;-84
2021/12/08 00:45:06;;;;;;;15.23;4.05;;;2.80;99.90;;;;;;5085189;28;20052;-84
2021/12/08 00:47:32;;;;;;;15.50;3.97;;;2.80;99.90;;;;;;5085967;28;20052;-83
2021/12/08 00:49:58;;;;;;;14.52;4.60;;;2.80;99.90;;;;;;5074717;28;20786;-83
2021/12/08 00:52:28;;;;;;;13.95;4.35;;;2.90;99.90;;;;;;5067366;28;20052;-85
2021/12/08 00:54:54;;;;;;;17.55;4.53;;;2.90;99.90;;;;;;5068157;28;20047;-86
2021/12/08 00:57:21;;;;;;;14.85;4.32;;;2.90;99.90;;;;;;5086054;28;20048;-84
2021/12/08 00:59:47;;;;;;;17.88;4.63;;;2.90;99.90;;;;;;5069167;28;20054;-83
2021/12/08 01:02:13;;;;;;;15.15;4.72;;;2.90;99.90;;;;;;5066595;28;20048;-84
2021/12/08 01:04:38;;;;;;;15.63;4.80;;;2.90;99.90;;;;;;5083240;28;20154;-84
2021/12/08 01:07:04;;;;;;;11.77;4.75;;;2.90;99.90;;;;;;5101589;28;20040;-82
2021/12/08 01:09:31;;;;;;;14.35;4.75;;;2.90;99.90;;;;;;5088771;28;20082;-84
2021/12/08 01:12:01;;;;;;;10.52;3.70;;;2.90;99.90;;;;;;5072787;28;20145;-84
2021/12/08 01:14:30;;;;;;;14.27;4.65;;;2.90;99.90;;;;;;5089737;28;20048;-84
2021/12/08 01:16:56;;;;;;;16.60;5.38;;;2.90;99.90;;;;;;5080346;28;20048;-86
2021/12/08 01:19:23;;;;;;;12.27;4.40;;;3.00;99.90;;;;;;5090243;28;20044;-84
2021/12/08 01:21:50;;;;;;;8.77;4.47;;;3.00;99.90;;;;;;5071741;28;20040;-86
2021/12/08 01:24:15;;;;;;;13.50;4.75;;;3.00;99.90;;;;;;5071208;28;20054;-85
2021/12/08 01:26:41;;;;;;;17.13;5.00;;;3.00;99.90;;;;;;5088516;28;20040;-84
2021/12/08 01:29:08;;;;;;;12.40;4.43;;;3.00;99.90;;;;;;5071674;28;20081;-85
2021/12/08 01:31:36;;;;;;;12.88;5.10;;;3.00;99.90;;;;;;5089692;28;20044;-88
2021/12/08 01:34:02;;;;;;;11.65;4.85;;;3.10;99.90;;;;;;5089140;28;20083;-85
2021/12/08 01:36:29;;;;;;;16.15;5.55;;;3.00;99.90;;;;;;5071327;28;20043;-85
2021/12/08 01:38:54;;;;;;;10.45;4.53;;;3.00;99.90;;;;;;5071555;28;20032;-87
2021/12/08 01:41:23;;;;;;;10.77;4.60;;;3.00;99.90;;;;;;5088858;28;20129;-86
2021/12/08 01:46:33;;;;;;;12.93;4.95;;;3.00;99.90;;;;;;5088640;28;20098;-86
2021/12/08 01:49:00;;;;;;;14.93;5.63;;;3.10;99.90;;;;;;5068082;28;20508;-85
2021/12/08 01:51:26;;;;;;;15.40;5.03;;;3.10;99.90;;;;;;5084529;28;20382;-85
2021/12/08 01:53:54;;;;;;;12.73;4.82;;;3.10;99.90;;;;;;5051483;28;20055;-86
2021/12/08 01:56:22;;;;;;;14.50;6.15;;;3.10;99.90;;;;;;5080912;28;20488;-84
2021/12/08 01:58:49;;;;;;;13.23;5.75;;;3.10;99.90;;;;;;5070727;28;20043;-83
2021/12/08 02:01:17;;;;;;;15.90;5.55;;;3.10;99.90;;;;;;5084110;28;20148;-84
2021/12/08 02:03:43;;;;;;;15.50;5.68;;;3.10;99.90;;;;;;5066685;28;20079;-84
2021/12/08 02:06:11;;;;;;;13.73;4.90;;;3.20;99.90;;;;;;5066683;28;20385;-84
2021/12/08 02:08:37;;;;;;;16.10;5.90;;;3.20;99.90;;;;;;5084251;28;20127;-83
2021/12/08 02:11:04;;;;;;;14.73;5.40;;;3.20;99.90;;;;;;5070685;28;20063;-82
2021/12/08 02:13:36;;;;;;;16.77;5.47;;;3.20;99.90;;;;;;5088648;28;20058;-82
2021/12/08 02:16:03;;;;;;;16.13;5.88;;;3.20;99.90;;;;;;5075905;28;20045;-84
2021/12/08 02:18:29;;;;;;;15.55;5.65;;;3.20;99.90;;;;;;5081376;28;20077;-85
2021/12/08 02:20:58;;;;;;;19.45;6.22;;;3.20;99.90;;;;;;5066637;28;20121;-85
2021/12/08 02:23:24;;;;;;;14.30;6.30;;;3.20;99.90;;;;;;5080623;28;20044;-86
2021/12/08 02:25:50;;;;;;;13.13;5.68;;;3.20;99.90;;;;;;5055564;28;20048;-84
2021/12/08 02:28:16;;;;;;;15.02;5.65;;;3.20;99.90;;;;;;5082329;28;20120;-83
2021/12/08 02:30:58;;;;;;;14.02;5.32;;;3.30;99.90;;;;;;5068135;28;20695;-81
2021/12/08 02:47:29;;;;;;;11.43;5.03;;;4.20;99.90;;;;;;5084063;28;20043;-84
2021/12/08 02:49:56;;;;;;;15.02;6.28;;;3.40;99.90;;;;;;5083767;28;20086;-84
2021/12/08 02:52:22;;;;;;;11.18;5.82;;;3.40;99.90;;;;;;5089367;28;20048;-84
2021/12/08 02:54:50;;;;;;;11.70;6.00;;;3.40;99.90;;;;;;5088629;28;20028;-84
2021/12/08 02:57:19;;;;;;;11.68;5.85;;;3.40;99.90;;;;;;5071345;28;20055;-85
2021/12/08 02:59:46;;;;;;;17.10;6.70;;;4.20;99.90;;;;;;5070601;28;20461;-85
2021/12/08 03:02:12;;;;;;;15.27;6.15;;;3.40;99.90;;;;;;5071136;28;20392;-85
2021/12/08 03:04:38;;;;;;;12.27;6.30;;;3.50;99.90;;;;;;5072751;28;20075;-85
2021/12/08 03:07:06;;;;;;;10.20;6.53;;;3.50;99.90;;;;;;5076656;28;20517;-85
2021/12/08 03:09:32;;;;;;;12.48;6.72;;;3.50;99.90;;;;;;5070397;28;20043;-83
2021/12/08 03:11:59;;;;;;;14.57;7.38;;;3.50;99.90;;;;;;5090418;28;20043;-83
2021/12/08 03:14:25;;;;;;;13.20;7.07;;;4.20;99.90;;;;;;5073969;28;20032;-84
2021/12/08 03:16:56;;;;;;;16.27;7.00;;;4.10;99.90;;;;;;5090920;28;20036;-85
2021/12/08 03:19:25;;;;;;;16.92;8.80;;;3.50;99.90;;;;;;5071887;28;20059;-85
2021/12/08 03:21:51;;;;;;;18.77;8.57;;;3.50;99.90;;;;;;5073603;28;20024;-85
2021/12/08 03:24:26;;;;;;;14.23;6.97;;;3.50;99.90;;;;;;5086147;28;20050;-83
2021/12/08 03:32:15;;;;;;;15.73;9.70;;;3.60;99.90;;;;;;5086745;28;20044;-85
2021/12/08 03:34:50;;;;;;;15.10;8.18;;;3.60;99.90;;;;;;5084015;28;20051;-85
2021/12/08 03:37:17;;;;;;;22.35;9.23;;;3.60;99.90;;;;;;5069599;28;20470;-85
2021/12/08 03:39:43;;;;;;;15.65;9.07;;;3.60;99.90;;;;;;5086781;28;20040;-85
2021/12/08 03:42:10;;;;;;;14.75;9.50;;;3.60;99.90;;;;;;5069032;28;20039;-85
2021/12/08 03:44:37;;;;;;;23.42;9.43;;;3.70;99.90;;;;;;5086082;28;20040;-86
2021/12/08 03:47:12;;;;;;;16.65;9.07;;;3.70;99.90;;;;;;5075854;28;20102;-86
2021/12/08 03:49:40;;;;;;;16.05;9.18;;;3.70;99.90;;;;;;5094203;28;20050;-85
2021/12/08 03:52:06;;;;;;;15.32;9.85;;;3.70;99.90;;;;;;5068967;28;20589;-87
2021/12/08 03:54:32;;;;;;;16.27;9.68;;;3.70;99.90;;;;;;5069025;28;20073;-85
2021/12/08 03:56:58;;;;;;;18.92;10.15;;;3.70;99.90;;;;;;5078169;28;20048;-84
2021/12/08 03:59:24;;;;;;;18.90;10.15;;;3.80;99.90;;;;;;5066883;28;20377;-87
2021/12/08 04:01:49;;;;;;;20.30;11.38;;;3.80;99.90;;;;;;5085982;28;20201;-87
2021/12/08 04:04:15;;;;;;;17.67;11.52;;;3.80;99.90;;;;;;5069522;28;20043;-86
2021/12/08 04:06:51;;;;;;;17.67;9.98;;;3.80;99.90;;;;;;5065398;28;20071;-87
2021/12/08 04:09:41;;;;;;;22.35;12.90;;;3.80;99.90;;;;;;5069052;28;20036;-86
2021/12/08 04:12:06;;;;;;;24.88;12.68;;;3.80;99.90;;;;;;5089901;28;20408;-87
2021/12/08 04:14:35;;;;;;;23.20;12.20;;;3.90;99.90;;;;;;5068631;28;20048;-87
2021/12/08 04:17:30;;;;;;;24.08;12.43;;;3.90;99.90;;;;;;5064927;28;20048;-86
2021/12/08 04:19:57;;;;;;;24.05;12.68;;;3.90;99.90;;;;;;5082560;28;20052;-87
2021/12/08 04:22:34;;;;;;;22.55;11.25;;;3.90;99.90;;;;;;5067622;28;20496;-87
2021/12/08 04:25:03;;;;;;;23.92;13.40;;;3.90;99.90;;;;;;5067194;28;20121;-88
2021/12/08 04:27:33;;;;;;;18.83;13.30;;;3.90;99.90;;;;;;5084077;28;20105;-84
2021/12/08 04:29:59;;;;;;;22.73;11.98;;;3.90;99.90;;;;;;5084118;28;20159;-86
2021/12/08 04:32:28;;;;;;;23.63;13.00;;;3.90;99.90;;;;;;5085446;28;20457;-84
2021/12/08 04:34:58;;;;;;;22.73;12.25;;;4.00;99.90;;;;;;5081846;28;20040;-86
2021/12/08 04:37:33;;;;;;;24.75;13.77;;;4.00;99.90;;;;;;5068408;28;20114;-86
2021/12/08 04:43:21;;;;;;;22.88;13.55;;;4.00;99.90;;;;;;5084642;28;20063;-86
2021/12/08 04:45:33;;;;;;;29.10;14.02;;;4.00;99.90;;;;;;5079441;28;20067;-86
2021/12/08 04:53:08;;;;;;;21.33;13.48;;;4.10;99.90;;;;;;5088726;28;20450;-86
2021/12/08 05:07:16;;;;;;;26.38;14.65;;;4.20;99.90;;;;;;5086764;28;20047;-84
2021/12/08 05:09:45;;;;;;;23.08;14.05;;;4.20;99.90;;;;;;5086330;28;20100;-85
2021/12/08 05:12:20;;;;;;;21.30;13.07;;;4.30;99.90;;;;;;5084700;28;20629;-86
2021/12/08 05:14:49;;;;;;;20.48;12.98;;;4.30;99.90;;;;;;5085941;28;20534;-84
2021/12/08 05:17:23;;;;;;;26.30;14.32;;;4.30;99.90;;;;;;5085734;28;20039;-84
2021/12/08 05:19:52;;;;;;;25.02;12.40;;;4.60;99.90;;;;;;5071938;28;20413;-84
2021/12/08 05:22:26;;;;;;;19.55;12.60;;;4.40;99.90;;;;;;5086169;28;20040;-83
2021/12/08 05:24:54;;;;;;;17.38;11.68;;;4.40;99.90;;;;;;5064969;28;20048;-84
2021/12/08 05:27:34;;;;;;;23.15;12.70;;;4.50;99.90;;;;;;5071439;28;20044;-83
2021/12/08 05:30:12;;;;;;;19.83;12.48;;;4.50;99.90;;;;;;5065140;28;20301;-83
2021/12/08 05:32:39;;;;;;;19.33;10.77;;;4.60;99.90;;;;;;5067270;28;20559;-84
2021/12/08 05:35:10;;;;;;;20.20;11.35;;;4.60;99.90;;;;;;5064944;28;20097;-82
2021/12/08 05:37:37;;;;;;;21.67;10.60;;;4.60;99.90;;;;;;5081474;28;20032;-83
2021/12/08 05:40:08;;;;;;;24.40;11.27;;;4.70;99.90;;;;;;5066588;28;20127;-82
2021/12/08 05:42:35;;;;;;;20.58;11.40;;;4.70;99.90;;;;;;5084899;28;20036;-82
2021/12/08 05:45:12;;;;;;;20.90;10.80;;;4.80;99.90;;;;;;5082405;28;20052;-83
2021/12/08 05:47:39;;;;;;;18.02;9.95;;;4.80;99.90;;;;;;5076821;28;20062;-83
2021/12/08 05:50:07;;;;;;;16.83;10.07;;;4.80;99.90;;;;;;5059912;28;20100;-82
2021/12/08 05:52:33;;;;;;;19.02;10.00;;;4.80;99.90;;;;;;5057842;28;20040;-82
2021/12/08 05:54:59;;;;;;;24.27;10.30;;;4.90;99.90;;;;;;5071770;28;20040;-82
2021/12/08 05:57:32;;;;;;;16.73;9.63;;;4.90;99.90;;;;;;5070776;28;20086;-82
2021/12/08 05:59:59;;;;;;;20.83;10.50;;;4.90;99.90;;;;;;5082727;28;20067;-82
2021/12/08 06:02:32;;;;;;;18.45;10.45;;;4.90;99.90;;;;;;5063922;28;20044;-82
2021/12/08 06:04:59;;;;;;;20.10;10.05;;;4.90;99.90;;;;;;5061079;28;20142;-82
2021/12/08 06:07:25;;;;;;;21.40;10.38;;;4.90;99.90;;;;;;5068166;28;20038;-83
2021/12/08 06:09:54;;;;;;;15.85;9.45;;;5.00;99.90;;;;;;5069768;28;20074;-82
2021/12/08 06:12:20;;;;;;;24.90;10.85;;;5.00;99.90;;;;;;5082810;28;20044;-83
2021/12/08 06:14:46;;;;;;;19.30;10.15;;;5.00;99.90;;;;;;5065630;28;20040;-83
2021/12/08 06:17:17;;;;;;;18.15;10.10;;;5.00;99.90;;;;;;5077394;28;20036;-82
2021/12/08 06:19:43;;;;;;;19.02;9.70;;;5.10;99.90;;;;;;5066264;28;20083;-83
2021/12/08 06:22:11;;;;;;;18.35;9.18;;;5.10;99.90;;;;;;5081010;28;20119;-83
2021/12/08 06:24:38;;;;;;;22.55;10.63;;;5.10;99.90;;;;;;5081922;28;20040;-81
2021/12/08 06:27:05;;;;;;;18.00;8.85;;;5.10;99.90;;;;;;5064330;28;20768;-81
2021/12/08 06:29:32;;;;;;;16.27;8.52;;;5.10;99.90;;;;;;5066002;28;20117;-82
2021/12/08 06:32:01;;;;;;;17.80;10.05;;;5.10;99.90;;;;;;5083861;28;20048;-86
2021/12/08 06:34:28;;;;;;;20.70;9.20;;;5.10;99.90;;;;;;5068302;28;20079;-85
2021/12/08 06:37:08;;;;;;;17.45;9.77;;;5.10;99.90;;;;;;5065837;28;20044;-86
2021/12/08 06:39:41;;;;;;;18.05;8.95;;;5.00;99.90;;;;;;5066771;28;20040;-86
2021/12/08 06:42:12;;;;;;;17.92;8.27;;;5.00;99.90;;;;;;5083899;28;20113;-85
2021/12/08 06:44:40;;;;;;;15.50;8.17;;;5.70;99.90;;;;;;5060788;28;20124;-85
2021/12/08 06:47:09;;;;;;;15.88;8.13;;;4.90;99.90;;;;;;5060752;28;20402;-86
2021/12/08 06:49:35;;;;;;;18.90;7.95;;;4.90;99.90;;;;;;5079837;28;20128;-86
2021/12/08 06:52:07;;;;;;;17.85;8.20;;;4.90;99.90;;;;;;5079062;28;20080;-86
2021/12/08 06:54:38;;;;;;;16.27;9.07;;;4.80;99.90;;;;;;5059477;28;20051;-85
2021/12/08 06:57:19;;;;;;;16.13;8.32;;;4.80;99.90;;;;;;5074883;28;20053;-83
2021/12/08 07:00:18;;;;;;;14.80;8.18;;;4.70;99.90;;;;;;5071344;28;20103;-85
2021/12/08 07:05:13;;;;;;;14.77;8.27;;;4.70;99.90;;;;;;5081184;28;20101;-86
2021/12/08 07:07:43;;;;;;;15.10;7.80;;;4.70;99.90;;;;;;5063292;28;20056;-86
2021/12/08 07:10:19;;;;;;;15.13;8.18;;;4.70;99.90;;;;;;5091887;28;20078;-84
2021/12/08 07:12:52;;;;;;;17.60;7.88;;;4.60;99.90;;;;;;5080900;28;20058;-85
2021/12/08 07:15:32;;;;;;;14.82;8.23;;;4.70;99.90;;;;;;5072602;28;20075;-85
2021/12/08 07:18:02;;;;;;;16.58;7.32;;;4.60;99.90;;;;;;5079900;28;20044;-86
2021/12/08 07:20:43;;;;;;;20.55;6.82;;;5.20;99.90;;;;;;5061348;28;20036;-86
2021/12/08 07:23:18;;;;;;;17.15;7.43;;;4.60;99.90;;;;;;5089155;28;20082;-86
2021/12/08 07:25:45;;;;;;;16.50;7.50;;;4.50;99.90;;;;;;5061744;28;20044;-86
2021/12/08 07:28:13;;;;;;;14.80;7.80;;;4.60;99.90;;;;;;5076085;28;20170;-85
2021/12/08 07:30:56;;;;;;;13.18;7.03;;;4.50;99.90;;;;;;5091873;28;20076;-87
2021/12/08 07:33:22;;;;;;;14.90;7.25;;;4.50;99.90;;;;;;5078612;28;20044;-85
2021/12/08 07:35:53;;;;;;;19.30;7.40;;;4.40;99.90;;;;;;5073567;28;20032;-88
2021/12/08 07:38:24;;;;;;;18.60;7.43;;;4.40;99.90;;;;;;5064372;28;20087;-87
2021/12/08 07:40:55;;;;;;;16.15;7.47;;;4.50;99.90;;;;;;5063030;28;20040;-86
2021/12/08 07:43:22;;;;;;;;;;;4.40;99.90;;;;;;5066916;28;20040;-86
2021/12/08 07:45:53;;;;;;;14.13;6.18;;;4.50;99.90;;;;;;5090640;28;19997;-86
2021/12/08 07:48:26;;;;;;;10.90;5.90;;;4.50;99.90;;;;;;5089507;28;20068;-84
2021/12/08 07:50:55;;;;;;;12.35;5.78;;;5.50;99.90;;;;;;5073231;28;20940;-84
2021/12/08 07:53:25;;;;;;;14.88;5.03;;;4.50;99.90;;;;;;5053781;28;20055;-84
2021/12/08 07:55:58;;;;;;;10.27;4.43;;;4.50;99.90;;;;;;5068918;28;20055;-84
2021/12/08 07:58:24;;;;;;;13.02;4.45;;;4.50;99.90;;;;;;5058662;28;20055;-86
2021/12/08 08:01:18;;;;;;;17.35;5.10;;;4.50;99.90;;;;;;5084897;28;20040;-84
2021/12/08 08:03:45;;;;;;;7.47;3.40;;;4.50;99.90;;;;;;5057145;28;20099;-85
2021/12/08 08:06:22;;;;;;;13.63;4.72;;;4.50;99.90;;;;;;5062999;28;20040;-86
2021/12/08 08:08:48;;;;;;;12.57;3.97;;;4.50;99.90;;;;;;5087752;28;20044;-85
2021/12/08 08:11:21;;;;;;;11.07;4.10;;;4.90;99.90;;;;;;5063302;28;20206;-86
2021/12/08 08:13:47;;;;;;;13.05;3.65;;;4.50;99.90;;;;;;5075636;28;20330;-85
2021/12/08 08:16:17;;;;;;;10.93;3.55;;;4.50;99.90;;;;;;5081316;28;20456;-84
2021/12/08 08:18:49;;;;;;;9.07;3.58;;;4.50;99.90;;;;;;5081403;28;20568;-84
2021/12/08 08:21:18;;;;;;;8.77;3.03;;;4.50;99.90;;;;;;5087886;28;21071;-84
2021/12/08 08:23:45;;;;;;;10.55;3.70;;;4.70;99.90;;;;;;5066463;28;20085;-84
2021/12/08 08:26:11;;;;;;;11.43;3.35;;;4.60;99.90;;;;;;5078828;28;20437;-84
2021/12/08 08:28:38;;;;;;;10.98;3.58;;;4.60;99.90;;;;;;5063743;28;20389;-84
2021/12/08 08:31:16;;;;;;;14.50;3.25;;;4.60;99.90;;;;;;5063214;28;20044;-84
2021/12/08 08:33:42;;;;;;;14.40;2.60;;;4.60;99.90;;;;;;5066053;28;20682;-83
2021/12/08 08:36:11;;;;;;;10.18;3.10;;;4.60;99.90;;;;;;5080446;28;20038;-87
2021/12/08 08:38:46;;;;;;;13.10;3.45;;;4.60;99.90;;;;;;5085100;28;20582;-85
2021/12/08 08:41:36;;;;;;;9.32;3.00;;;4.60;99.90;;;;;;5088863;28;20378;-85
2021/12/08 08:44:08;;;;;;;12.95;3.17;;;4.70;99.90;;;;;;5057240;28;20059;-87
2021/12/08 08:46:39;;;;;;;9.50;3.42;;;5.10;99.90;;;;;;5074338;28;20047;-84
2021/12/08 08:49:13;;;;;;;9.77;3.08;;;4.70;99.90;;;;;;5061603;28;20042;-84
2021/12/08 08:51:50;;;;;;;12.07;3.05;;;4.70;99.90;;;;;;5062223;28;20135;-83
2021/12/08 08:54:21;;;;;;;16.45;3.38;;;4.60;99.90;;;;;;5082489;28;20047;-84
2021/12/08 08:56:57;;;;;;;8.68;2.67;;;4.70;99.90;;;;;;5079312;28;20075;-84
2021/12/08 08:59:32;;;;;;;15.35;3.03;;;5.10;99.90;;;;;;5065791;28;20074;-85
2021/12/08 09:02:07;;;;;;;9.40;2.72;;;4.80;99.90;;;;;;5066090;28;20032;-84
2021/12/08 09:04:37;;;;;;;11.32;2.92;;;4.80;99.90;;;;;;5083797;28;20086;-86
2021/12/08 09:07:07;;;;;;;13.15;2.80;;;5.60;99.90;;;;;;5065685;28;20040;-84
2021/12/08 09:09:39;;;;;;;12.98;3.40;;;4.90;99.90;;;;;;5093773;28;20047;-85
2021/12/08 09:12:25;;;;;;;11.18;3.35;;;4.90;99.90;;;;;;5064793;28;20055;-84
2021/12/08 09:14:55;;;;;;;8.88;2.95;;;4.90;99.90;;;;;;5060418;28;20040;-84
2021/12/08 09:17:37;;;;;;;13.52;3.22;;;4.80;99.90;;;;;;5065341;28;20129;-85
2021/12/08 09:20:21;;;;;;;12.63;3.05;;;4.80;99.90;;;;;;5076156;28;20061;-85
2021/12/08 09:22:55;;;;;;;8.15;2.47;;;4.90;99.90;;;;;;5064463;28;20404;-84
2021/12/08 09:25:54;;;;;;;6.88;2.70;;;4.90;99.90;;;;;;5081780;28;20105;-84
2021/12/08 09:28:31;;;;;;;13.75;2.67;;;4.80;99.90;;;;;;5065191;28;20047;-84
2021/12/08 09:31:05;;;;;;;10.65;2.58;;;5.30;99.90;;;;;;5081698;28;20047;-83
2021/12/08 09:33:39;;;;;;;8.88;2.33;;;4.80;99.90;;;;;;5063434;28;20047;-87
2021/12/08 09:36:15;;;;;;;13.88;2.17;;;4.90;99.90;;;;;;5066015;28;20047;-85
2021/12/08 09:38:52;;;;;;;14.52;2.83;;;4.90;99.90;;;;;;5076821;28;20144;-85
2021/12/08 09:41:20;;;;;;;13.88;2.72;;;4.90;99.90;;;;;;5081141;28;20488;-86
2021/12/08 09:43:50;;;;;;;10.18;2.78;;;5.50;99.90;;;;;;5063597;28;20407;-84
2021/12/08 09:46:25;;;;;;;13.50;2.40;;;5.50;99.90;;;;;;5064724;28;20113;-84
2021/12/08 09:48:51;;;;;;;14.73;2.95;;;5.00;99.90;;;;;;5065722;28;20048;-86
2021/12/08 09:51:21;;;;;;;11.05;2.53;;;4.60;99.90;;;;;;5066218;28;20569;-84
2021/12/08 09:53:48;;;;;;;10.95;2.28;;;5.00;99.90;;;;;;5065888;28;20075;-86
2021/12/08 09:56:15;;;;;;;11.85;2.85;;;5.10;99.90;;;;;;5065683;28;20039;-85
2021/12/08 09:58:42;;;;;;;10.95;3.05;;;5.10;99.90;;;;;;5084403;28;20695;-87
2021/12/08 10:01:13;;;;;;;13.85;3.30;;;5.10;99.90;;;;;;5065019;28;20101;-87
2021/12/08 10:03:39;;;;;;;10.50;2.60;;;5.20;99.90;;;;;;5083359;28;20135;-86
2021/12/08 10:06:05;;;;;;;14.32;2.33;;;5.60;99.90;;;;;;5065388;28;20088;-85
2021/12/08 10:08:32;;;;;;;6.93;2.40;;;5.20;99.90;;;;;;5066985;28;20031;-86
2021/12/08 10:10:59;;;;;;;12.02;2.33;;;5.30;99.90;;;;;;5081831;28;20028;-85
2021/12/08 10:13:25;;;;;;;14.63;2.70;;;5.30;99.90;;;;;;5085577;28;20070;-85
2021/12/08 10:15:51;;;;;;;12.88;2.55;;;5.30;99.90;;;;;;5066784;28;20067;-86
2021/12/08 10:18:16;;;;;;;8.93;2.42;;;5.30;99.90;;;;;;5082741;28;20040;-85
2021/12/08 10:20:45;;;;;;;8.75;2.35;;;5.40;99.90;;;;;;5080585;28;20040;-85
2021/12/08 10:23:23;;;;;;;18.48;3.72;;;5.40;99.90;;;;;;5083167;28;20047;-85
2021/12/08 10:26:09;;;;;;;15.20;3.10;;;5.40;99.90;;;;;;5067587;28;20036;-86
2021/12/08 10:28:49;;;;;;;14.57;2.92;;;5.40;99.90;;;;;;5081727;28;20420;-87
2021/12/08 10:31:30;;;;;;;18.52;3.70;;;5.40;99.90;;;;;;5063969;28;20036;-86
2021/12/08 10:36:48;;;;;;;9.23;2.25;;;5.40;99.90;;;;;;5085038;28;20680;-87
2021/12/08 10:39:30;;;;;;;13.40;2.78;;;5.40;99.90;;;;;;5066542;28;20032;-84
2021/12/08 10:41:58;;;;;;;14.75;2.38;;;5.40;99.90;;;;;;5070279;28;20054;-84
2021/12/08 10:44:49;;;;;;;13.82;2.50;;;5.40;99.90;;;;;;5064962;28;20079;-83
2021/12/08 10:47:21;;;;;;;14.45;2.35;;;5.30;99.90;;;;;;5064369;28;20118;-84
2021/12/08 10:55:11;;;;;;;12.70;2.42;;;5.60;99.90;;;;;;5080792;28;20115;-84
2021/12/08 10:57:41;;;;;;;12.95;2.22;;;5.60;99.90;;;;;;5085426;28;20036;-83
2021/12/08 11:00:21;;;;;;;10.60;2.35;;;5.60;99.90;;;;;;5067362;28;20432;-85
2021/12/08 11:02:54;;;;;;;13.83;2.30;;;5.70;99.90;;;;;;5066368;28;20043;-85
2021/12/08 11:05:27;;;;;;;10.50;2.13;;;5.70;99.90;;;;;;5068308;28;20039;-84
2021/12/08 11:08:11;;;;;;;17.77;2.58;;;5.70;99.90;;;;;;5076673;28;20424;-84
2021/12/08 11:11:05;;;;;;;14.80;2.42;;;5.80;99.90;;;;;;5075678;28;20047;-86
2021/12/08 11:13:35;;;;;;;15.27;1.92;;;5.80;99.90;;;;;;5077776;28;20613;-85
2021/12/08 11:16:03;;;;;;;11.73;1.83;;;5.80;99.90;;;;;;5075375;28;20076;-84
2021/12/08 11:18:30;;;;;;;10.63;2.13;;;5.80;99.90;;;;;;5084451;28;20043;-86
2021/12/08 11:21:07;;;;;;;12.27;2.78;;;5.80;99.90;;;;;;5068161;28;20055;-84
2021/12/08 11:23:46;;;;;;;11.43;2.20;;;5.90;99.90;;;;;;5061356;28;20439;-85
2021/12/08 11:26:38;;;;;;;10.13;2.00;;;5.90;99.90;;;;;;5072060;28;20116;-85
2021/12/08 11:29:08;;;;;;;;;;;6.00;99.90;;;;;;5055686;28;20059;-84
2021/12/08 11:31:36;;;;;;;12.20;2.08;;;6.00;99.90;;;;;;5076510;28;20110;-85
2021/12/08 11:34:05;;;;;;;9.52;2.13;;;5.90;99.90;;;;;;5072305;28;20197;-85
2021/12/08 11:36:35;;;;;;;14.23;2.50;;;5.90;99.90;;;;;;5059094;28;20051;-85
2021/12/08 11:39:18;;;;;;;14.90;2.15;;;6.00;99.90;;;;;;5070358;28;20751;-84
2021/12/08 11:41:49;;;;;;;13.77;2.30;;;6.10;99.90;;;;;;5077969;28;20426;-84
2021/12/08 11:44:23;;;;;;;9.50;2.00;;;6.00;99.90;;;;;;5058178;28;20048;-87
2021/12/08 11:46:52;;;;;;;10.25;2.17;;;6.00;99.90;;;;;;5055456;28;20113;-85
2021/12/08 11:49:19;;;;;;;14.77;2.80;;;6.50;99.90;;;;;;5076412;28;21280;-86
2021/12/08 11:51:44;;;;;;;10.95;2.10;;;6.00;99.90;;;;;;5061690;28;20074;-86
2021/12/08 11:54:47;;;;;;;11.10;2.10;;;5.90;99.90;;;;;;5060948;28;20043;-83
2021/12/08 11:57:19;;;;;;;12.98;2.13;;;5.90;99.90;;;;;;5080293;28;20051;-85
2021/12/08 11:59:50;;;;;;;7.68;1.80;;;5.90;99.90;;;;;;5061690;28;20157;-84
2021/12/08 12:02:19;;;;;;;8.48;2.40;;;5.90;99.90;;;;;;5063950;28;20115;-85
2021/12/08 12:04:45;;;;;;;7.65;1.95;;;5.80;99.90;;;;;;5065533;28;20043;-83
2021/12/08 12:07:13;;;;;;;11.52;2.20;;;5.80;99.90;;;;;;5080100;28;20055;-84
2021/12/08 12:09:40;;;;;;;9.98;2.30;;;5.80;99.90;;;;;;5067103;28;20043;-89
2021/12/08 12:12:06;;;;;;;9.98;2.05;;;5.80;99.90;;;;;;5095746;28;20067;-87
2021/12/08 12:14:32;;;;;;;8.35;2.05;;;5.80;99.90;;;;;;5066265;28;20047;-84
2021/12/08 12:16:58;;;;;;;9.65;1.90;;;5.90;99.90;;;;;;5083827;28;20046;-84
2021/12/08 12:19:27;;;;;;;10.55;2.78;;;5.80;99.90;;;;;;5065037;28;20556;-84
2021/12/08 12:22:23;;;;;;;13.15;3.28;;;5.80;99.90;;;;;;5063710;28;20048;-84
2021/12/08 12:25:15;;;;;;;10.45;2.85;;;5.80;99.90;;;;;;5068724;28;20044;-85
2021/12/08 12:28:01;;;;;;;11.77;1.98;;;5.80;99.90;;;;;;5085330;28;20403;-86
2021/12/08 12:30:53;;;;;;;8.68;1.80;;;6.10;99.90;;;;;;5045591;28;20582;-83
2021/12/08 12:33:22;;;;;;;11.02;2.00;;;5.80;99.90;;;;;;5049182;28;20062;-87
2021/12/08 12:35:56;;;;;;;11.95;2.00;;;5.80;99.90;;;;;;5084611;28;20047;-84
2021/12/08 12:38:36;;;;;;;11.77;2.22;;;5.80;99.90;;;;;;5082415;28;20441;-85
2021/12/08 12:41:04;;;;;;;12.23;2.10;;;5.80;99.90;;;;;;5065544;28;20105;-84
2021/12/08 12:43:34;;;;;;;13.30;2.50;;;5.80;99.90;;;;;;5059492;28;20097;-84
2021/12/08 12:46:06;;;;;;;13.55;2.08;;;5.80;99.90;;;;;;5061238;28;20036;-84
2021/12/08 12:48:32;;;;;;;10.00;2.30;;;5.80;99.90;;;;;;5078090;28;20545;-85
2021/12/08 12:50:59;;;;;;;7.82;2.47;;;5.80;99.90;;;;;;5060305;28;20043;-85
2021/12/08 12:53:43;;;;;;;10.40;2.60;;;6.20;99.90;;;;;;5094453;28;20043;-84
2021/12/08 12:56:14;;;;;;;12.63;3.58;;;5.80;99.90;;;;;;5061021;28;20032;-84
2021/12/08 12:58:51;;;;;;;8.48;2.25;;;5.80;99.90;;;;;;5063783;28;20080;-83
2021/12/08 13:01:30;;;;;;;15.50;3.58;;;5.70;99.90;;;;;;5088107;28;20051;-83
2021/12/08 13:04:10;;;;;;;8.88;2.72;;;5.70;99.90;;;;;;5069442;28;20530;-86
2021/12/08 13:06:46;;;;;;;11.52;2.95;;;6.00;99.90;;;;;;5066453;28;20126;-83
2021/12/08 13:09:37;;;;;;;9.45;2.72;;;5.70;99.90;;;;;;5086606;28;20039;-84
2021/12/08 13:12:21;;;;;;;11.48;2.80;;;5.70;99.90;;;;;;5084507;28;20079;-84
2021/12/08 13:15:05;;;;;;;9.82;3.00;;;5.60;99.90;;;;;;5066745;28;20077;-83
2021/12/08 13:17:31;;;;;;;12.93;2.75;;;5.60;99.90;;;;;;5077829;28;20042;-83
2021/12/08 13:19:59;;;;;;;10.52;3.20;;;5.70;99.90;;;;;;5081877;28;20044;-87
2021/12/08 13:22:53;;;;;;;9.98;3.28;;;5.70;99.90;;;;;;5082551;28;20464;-85
2021/12/08 13:25:39;;;;;;;6.07;2.58;;;5.70;99.90;;;;;;5061409;28;20115;-83
2021/12/08 13:28:24;;;;;;;11.05;3.22;;;5.60;99.90;;;;;;5081035;28;20124;-83
2021/12/08 13:30:50;;;;;;;9.20;3.03;;;5.60;99.90;;;;;;5075778;28;20046;-84
2021/12/08 13:33:21;;;;;;;14.95;3.80;;;5.60;99.90;;;;;;5058756;28;20043;-84
2021/12/08 13:35:47;;;;;;;12.13;2.97;;;5.60;99.90;;;;;;5075988;28;20043;-84
2021/12/08 13:38:13;;;;;;;15.40;3.28;;;5.60;99.90;;;;;;5072692;28;20101;-84
2021/12/08 13:40:49;;;;;;;12.63;2.70;;;5.90;99.90;;;;;;5092824;28;20043;-84
2021/12/08 13:43:38;;;;;;;14.32;2.80;;;5.60;99.90;;;;;;5080461;28;20040;-84
2021/12/08 13:46:07;;;;;;;9.13;3.03;;;5.70;99.90;;;;;;5062947;28;20043;-85
2021/12/08 13:48:33;;;;;;;15.07;3.17;;;5.60;99.90;;;;;;5064476;28;20050;-86
2021/12/08 13:51:20;;;;;;;9.75;3.05;;;5.70;99.90;;;;;;5069088;28;20090;-85
2021/12/08 13:54:24;;;;;;;12.70;2.97;;;5.60;99.90;;;;;;5065627;28;20118;-83
2021/12/08 13:56:53;;;;;;;13.65;2.70;;;5.50;99.90;;;;;;5064466;28;20079;-82
2021/12/08 13:59:47;;;;;;;10.55;2.38;;;5.60;99.90;;;;;;5062138;28;20192;-82
2021/12/08 14:02:20;;;;;;;10.55;2.90;;;5.60;99.90;;;;;;5082011;28;20048;-83
2021/12/08 14:04:46;;;;;;;7.40;2.25;;;5.60;99.90;;;;;;5083159;28;20123;-84